sensor_id;sensor_type;location;lat;lon;timestamp;temperature;humidity
60293;DHT22;52402;52.670;6.750;2023-02-16T00:01:21;6.10;99.90
60293;DHT22;52402;52.670;6.750;2023-02-16T00:03:47;6.10;99.90
60293;DHT22;52402;52.670;6.750;2023-02-16T00:06:13;6.10;99.90
60293;DHT22;52402;52.670;6.750;2023-02-16T00:08:42;6.10;99.90
60293;DHT22;52402;52.670;6.750;2023-02-16T00:14:01;6.10;99.90
60293;DHT22;52402;52.670;6.750;2023-02-16T00:16:27;6.10;99.90
60293;DHT22;52402;52.670;6.750;2023-02-16T00:18:54;6.10;99.90
60293;DHT22;52402;52.670;6.750;2023-02-16T00:21:20;6.10;99.90
60293;DHT22;52402;52.670;6.750;2023-02-16T00:23:46;6.00;99.90
60293;DHT22;52402;52.670;6.750;2023-02-16T00:26:19;6.10;99.90
60293;DHT22;52402;52.670;6.750;2023-02-16T00:28:45;6.10;99.90
60293;DHT22;52402;52.670;6.750;2023-02-16T00:31:18;6.10;99.90
60293;DHT22;52402;52.670;6.750;2023-02-16T00:33:45;6.10;99.90
60293;DHT22;52402;52.670;6.750;2023-02-16T00:36:11;6.00;99.90
60293;DHT22;52402;52.670;6.750;2023-02-16T00:38:36;6.00;99.90
60293;DHT22;52402;52.670;6.750;2023-02-16T00:41:02;6.00;99.90
60293;DHT22;52402;52.670;6.750;2023-02-16T00:43:28;6.00;99.90
60293;DHT22;52402;52.670;6.750;2023-02-16T00:45:55;6.00;99.90
60293;DHT22;52402;52.670;6.750;2023-02-16T00:48:22;5.90;99.90
60293;DHT22;52402;52.670;6.750;2023-02-16T00:50:48;5.90;99.90
60293;DHT22;52402;52.670;6.750;2023-02-16T00:53:13;5.90;99.90
60293;DHT22;52402;52.670;6.750;2023-02-16T00:55:41;5.90;99.90
60293;DHT22;52402;52.670;6.750;2023-02-16T00:58:25;5.90;99.90
60293;DHT22;52402;52.670;6.750;2023-02-16T01:01:06;5.90;99.90
60293;DHT22;52402;52.670;6.750;2023-02-16T01:03:32;5.90;99.90
60293;DHT22;52402;52.670;6.750;2023-02-16T01:05:58;5.90;99.90
60293;DHT22;52402;52.670;6.750;2023-02-16T01:08:42;5.80;99.90
60293;DHT22;52402;52.670;6.750;2023-02-16T01:11:27;5.80;99.90
60293;DHT22;52402;52.670;6.750;2023-02-16T01:13:54;5.70;99.90
60293;DHT22;52402;52.670;6.750;2023-02-16T01:18:48;5.60;99.90
60293;DHT22;52402;52.670;6.750;2023-02-16T01:21:14;5.60;99.90
60293;DHT22;52402;52.670;6.750;2023-02-16T01:23:40;5.60;99.90
60293;DHT22;52402;52.670;6.750;2023-02-16T01:26:11;5.60;99.90
60293;DHT22;52402;52.670;6.750;2023-02-16T01:28:39;5.50;99.90
60293;DHT22;52402;52.670;6.750;2023-02-16T01:31:04;5.50;99.90
60293;DHT22;52402;52.670;6.750;2023-02-16T01:33:31;5.40;99.90
60293;DHT22;52402;52.670;6.750;2023-02-16T01:35:57;5.40;99.90
60293;DHT22;52402;52.670;6.750;2023-02-16T01:38:26;5.40;99.90
60293;DHT22;52402;52.670;6.750;2023-02-16T01:41:10;5.40;99.90
60293;DHT22;52402;52.670;6.750;2023-02-16T01:43:59;5.40;99.90
60293;DHT22;52402;52.670;6.750;2023-02-16T01:49:16;5.30;99.90
60293;DHT22;52402;52.670;6.750;2023-02-16T01:51:50;5.20;99.90
60293;DHT22;52402;52.670;6.750;2023-02-16T01:54:30;5.20;99.90
60293;DHT22;52402;52.670;6.750;2023-02-16T02:02:23;5.20;99.90
60293;DHT22;52402;52.670;6.750;2023-02-16T02:13:19;5.10;99.90
60293;DHT22;52402;52.670;6.750;2023-02-16T02:15:46;5.10;99.90
60293;DHT22;52402;52.670;6.750;2023-02-16T02:18:11;5.00;99.90
60293;DHT22;52402;52.670;6.750;2023-02-16T02:32:18;4.90;99.90
60293;DHT22;52402;52.670;6.750;2023-02-16T02:35:07;4.90;99.90
60293;DHT22;52402;52.670;6.750;2023-02-16T02:37:55;4.80;99.90
60293;DHT22;52402;52.670;6.750;2023-02-16T02:40:51;4.80;99.90
60293;DHT22;52402;52.670;6.750;2023-02-16T02:43:50;4.80;99.90
60293;DHT22;52402;52.670;6.750;2023-02-16T02:46:29;4.80;99.90
60293;DHT22;52402;52.670;6.750;2023-02-16T02:48:56;4.70;99.90
60293;DHT22;52402;52.670;6.750;2023-02-16T02:51:22;4.70;99.90
60293;DHT22;52402;52.670;6.750;2023-02-16T02:53:58;4.70;99.90
60293;DHT22;52402;52.670;6.750;2023-02-16T02:56:47;4.70;99.90
60293;DHT22;52402;52.670;6.750;2023-02-16T02:59:33;4.70;99.90
60293;DHT22;52402;52.670;6.750;2023-02-16T03:02:18;4.60;99.90
60293;DHT22;52402;52.670;6.750;2023-02-16T03:04:46;4.60;99.90
60293;DHT22;52402;52.670;6.750;2023-02-16T03:07:13;4.70;99.90
60293;DHT22;52402;52.670;6.750;2023-02-16T03:09:39;4.70;99.90
60293;DHT22;52402;52.670;6.750;2023-02-16T03:12:05;4.70;99.90
60293;DHT22;52402;52.670;6.750;2023-02-16T03:14:55;4.70;99.90
60293;DHT22;52402;52.670;6.750;2023-02-16T03:17:28;4.70;99.90
60293;DHT22;52402;52.670;6.750;2023-02-16T03:20:15;4.60;99.90
60293;DHT22;52402;52.670;6.750;2023-02-16T03:23:01;4.60;99.90
60293;DHT22;52402;52.670;6.750;2023-02-16T03:25:46;4.60;99.90
60293;DHT22;52402;52.670;6.750;2023-02-16T03:28:32;4.50;99.90
60293;DHT22;52402;52.670;6.750;2023-02-16T03:31:21;4.50;99.90
60293;DHT22;52402;52.670;6.750;2023-02-16T03:33:48;4.50;99.90
60293;DHT22;52402;52.670;6.750;2023-02-16T03:36:23;4.50;99.90
60293;DHT22;52402;52.670;6.750;2023-02-16T03:38:51;4.50;99.90
60293;DHT22;52402;52.670;6.750;2023-02-16T03:41:17;4.50;99.90
60293;DHT22;52402;52.670;6.750;2023-02-16T03:43:42;4.50;99.90
60293;DHT22;52402;52.670;6.750;2023-02-16T03:46:08;4.50;99.90
60293;DHT22;52402;52.670;6.750;2023-02-16T03:48:34;4.50;99.90
60293;DHT22;52402;52.670;6.750;2023-02-16T03:51:00;4.50;99.90
60293;DHT22;52402;52.670;6.750;2023-02-16T03:53:25;4.60;99.90
60293;DHT22;52402;52.670;6.750;2023-02-16T03:55:51;4.60;99.90
60293;DHT22;52402;52.670;6.750;2023-02-16T03:58:19;4.70;99.90
60293;DHT22;52402;52.670;6.750;2023-02-16T04:00:45;4.70;99.90
60293;DHT22;52402;52.670;6.750;2023-02-16T04:03:11;4.70;99.90
60293;DHT22;52402;52.670;6.750;2023-02-16T04:05:37;4.80;99.90
60293;DHT22;52402;52.670;6.750;2023-02-16T04:08:03;4.80;99.90
60293;DHT22;52402;52.670;6.750;2023-02-16T04:10:29;4.90;99.90
60293;DHT22;52402;52.670;6.750;2023-02-16T04:12:54;4.80;99.90
60293;DHT22;52402;52.670;6.750;2023-02-16T04:15:23;4.90;99.90
60293;DHT22;52402;52.670;6.750;2023-02-16T04:17:50;4.90;99.90
60293;DHT22;52402;52.670;6.750;2023-02-16T04:20:18;4.90;99.90
60293;DHT22;52402;52.670;6.750;2023-02-16T04:22:45;4.90;99.90
60293;DHT22;52402;52.670;6.750;2023-02-16T04:25:11;4.90;99.90
60293;DHT22;52402;52.670;6.750;2023-02-16T04:27:38;5.00;99.90
60293;DHT22;52402;52.670;6.750;2023-02-16T04:30:05;5.00;99.90
60293;DHT22;52402;52.670;6.750;2023-02-16T04:32:31;5.00;99.90
60293;DHT22;52402;52.670;6.750;2023-02-16T04:34:56;5.00;99.90
60293;DHT22;52402;52.670;6.750;2023-02-16T04:37:22;5.00;99.90
60293;DHT22;52402;52.670;6.750;2023-02-16T04:39:47;5.00;99.90
60293;DHT22;52402;52.670;6.750;2023-02-16T04:42:13;5.10;99.90
60293;DHT22;52402;52.670;6.750;2023-02-16T04:44:39;5.10;99.90
60293;DHT22;52402;52.670;6.750;2023-02-16T04:47:04;5.10;99.90
60293;DHT22;52402;52.670;6.750;2023-02-16T04:49:30;5.10;99.90
60293;DHT22;52402;52.670;6.750;2023-02-16T04:51:55;5.10;99.90
60293;DHT22;52402;52.670;6.750;2023-02-16T04:54:21;5.10;99.90
60293;DHT22;52402;52.670;6.750;2023-02-16T04:56:48;5.10;99.90
60293;DHT22;52402;52.670;6.750;2023-02-16T04:59:14;5.20;99.90
60293;DHT22;52402;52.670;6.750;2023-02-16T05:01:41;5.20;99.90
60293;DHT22;52402;52.670;6.750;2023-02-16T05:04:07;5.20;99.90
60293;DHT22;52402;52.670;6.750;2023-02-16T05:06:36;5.20;99.90
60293;DHT22;52402;52.670;6.750;2023-02-16T05:09:03;5.20;99.90
60293;DHT22;52402;52.670;6.750;2023-02-16T05:11:29;5.30;99.90
60293;DHT22;52402;52.670;6.750;2023-02-16T05:14:34;5.20;99.90
60293;DHT22;52402;52.670;6.750;2023-02-16T05:17:16;5.30;99.90
60293;DHT22;52402;52.670;6.750;2023-02-16T05:19:44;5.30;99.90
60293;DHT22;52402;52.670;6.750;2023-02-16T05:22:10;5.30;99.90
60293;DHT22;52402;52.670;6.750;2023-02-16T05:24:36;5.30;99.90
60293;DHT22;52402;52.670;6.750;2023-02-16T05:27:07;5.30;99.90
60293;DHT22;52402;52.670;6.750;2023-02-16T05:29:34;5.30;99.90
60293;DHT22;52402;52.670;6.750;2023-02-16T05:31:59;5.30;99.90
60293;DHT22;52402;52.670;6.750;2023-02-16T05:34:25;5.30;99.90
60293;DHT22;52402;52.670;6.750;2023-02-16T05:36:51;5.30;99.90
60293;DHT22;52402;52.670;6.750;2023-02-16T05:39:16;5.30;99.90
60293;DHT22;52402;52.670;6.750;2023-02-16T05:41:42;5.30;99.90
60293;DHT22;52402;52.670;6.750;2023-02-16T05:44:11;5.30;99.90
60293;DHT22;52402;52.670;6.750;2023-02-16T05:46:39;5.30;99.90
60293;DHT22;52402;52.670;6.750;2023-02-16T05:49:05;5.30;99.90
60293;DHT22;52402;52.670;6.750;2023-02-16T05:51:31;5.30;99.90
60293;DHT22;52402;52.670;6.750;2023-02-16T05:53:57;5.30;99.90
60293;DHT22;52402;52.670;6.750;2023-02-16T05:56:24;5.30;99.90
60293;DHT22;52402;52.670;6.750;2023-02-16T05:58:50;5.30;99.90
60293;DHT22;52402;52.670;6.750;2023-02-16T06:01:16;5.30;99.90
60293;DHT22;52402;52.670;6.750;2023-02-16T06:03:42;5.30;99.90
60293;DHT22;52402;52.670;6.750;2023-02-16T06:06:08;5.30;99.90
60293;DHT22;52402;52.670;6.750;2023-02-16T06:08:35;5.30;99.90
60293;DHT22;52402;52.670;6.750;2023-02-16T06:11:01;5.30;99.90
60293;DHT22;52402;52.670;6.750;2023-02-16T06:13:26;5.30;99.90
60293;DHT22;52402;52.670;6.750;2023-02-16T06:15:55;5.30;99.90
60293;DHT22;52402;52.670;6.750;2023-02-16T06:18:22;5.30;99.90
60293;DHT22;52402;52.670;6.750;2023-02-16T06:20:48;5.30;99.90
60293;DHT22;52402;52.670;6.750;2023-02-16T06:23:14;5.30;99.90
60293;DHT22;52402;52.670;6.750;2023-02-16T06:25:47;5.30;99.90
60293;DHT22;52402;52.670;6.750;2023-02-16T06:28:12;5.30;99.90
60293;DHT22;52402;52.670;6.750;2023-02-16T06:30:38;5.30;99.90
60293;DHT22;52402;52.670;6.750;2023-02-16T06:33:04;5.30;99.90
60293;DHT22;52402;52.670;6.750;2023-02-16T06:35:30;5.30;99.90
60293;DHT22;52402;52.670;6.750;2023-02-16T06:37:56;5.30;99.90
60293;DHT22;52402;52.670;6.750;2023-02-16T06:40:21;5.30;99.90
60293;DHT22;52402;52.670;6.750;2023-02-16T06:42:47;5.30;99.90
60293;DHT22;52402;52.670;6.750;2023-02-16T06:45:12;5.30;99.90
60293;DHT22;52402;52.670;6.750;2023-02-16T06:47:38;5.30;99.90
60293;DHT22;52402;52.670;6.750;2023-02-16T06:50:06;5.30;99.90
60293;DHT22;52402;52.670;6.750;2023-02-16T06:52:34;5.40;99.90
60293;DHT22;52402;52.670;6.750;2023-02-16T06:54:59;5.40;99.90
60293;DHT22;52402;52.670;6.750;2023-02-16T06:57:25;5.40;99.90
60293;DHT22;52402;52.670;6.750;2023-02-16T06:59:51;5.40;99.90
60293;DHT22;52402;52.670;6.750;2023-02-16T07:02:16;5.40;99.90
60293;DHT22;52402;52.670;6.750;2023-02-16T07:04:42;5.40;99.90
60293;DHT22;52402;52.670;6.750;2023-02-16T07:07:08;5.40;99.90
60293;DHT22;52402;52.670;6.750;2023-02-16T07:09:36;5.40;99.90
60293;DHT22;52402;52.670;6.750;2023-02-16T07:12:03;5.40;99.90
60293;DHT22;52402;52.670;6.750;2023-02-16T07:14:30;5.40;99.90
60293;DHT22;52402;52.670;6.750;2023-02-16T07:16:56;5.40;99.90
60293;DHT22;52402;52.670;6.750;2023-02-16T07:19:23;5.40;99.90
60293;DHT22;52402;52.670;6.750;2023-02-16T07:21:49;5.50;99.90
60293;DHT22;52402;52.670;6.750;2023-02-16T07:24:15;5.50;99.90
60293;DHT22;52402;52.670;6.750;2023-02-16T07:26:41;5.50;99.90
60293;DHT22;52402;52.670;6.750;2023-02-16T07:29:06;5.50;99.90
60293;DHT22;52402;52.670;6.750;2023-02-16T07:31:33;5.60;99.90
60293;DHT22;52402;52.670;6.750;2023-02-16T07:33:58;5.60;99.90
60293;DHT22;52402;52.670;6.750;2023-02-16T07:36:24;5.60;99.90
60293;DHT22;52402;52.670;6.750;2023-02-16T07:38:58;5.70;99.90
60293;DHT22;52402;52.670;6.750;2023-02-16T07:41:24;5.60;99.90
60293;DHT22;52402;52.670;6.750;2023-02-16T07:43:49;5.70;99.90
60293;DHT22;52402;52.670;6.750;2023-02-16T07:46:15;5.70;99.90
60293;DHT22;52402;52.670;6.750;2023-02-16T07:48:41;5.70;99.90
60293;DHT22;52402;52.670;6.750;2023-02-16T07:51:06;5.70;99.90
60293;DHT22;52402;52.670;6.750;2023-02-16T07:53:32;5.70;99.90
60293;DHT22;52402;52.670;6.750;2023-02-16T07:55:58;5.70;99.90
60293;DHT22;52402;52.670;6.750;2023-02-16T07:58:23;5.80;99.90
60293;DHT22;52402;52.670;6.750;2023-02-16T08:01:05;5.80;99.90
60293;DHT22;52402;52.670;6.750;2023-02-16T08:03:31;5.80;99.90
60293;DHT22;52402;52.670;6.750;2023-02-16T08:05:59;5.80;99.90
60293;DHT22;52402;52.670;6.750;2023-02-16T08:08:25;5.80;99.90
60293;DHT22;52402;52.670;6.750;2023-02-16T08:10:51;5.80;99.90
60293;DHT22;52402;52.670;6.750;2023-02-16T08:13:17;5.90;99.90
60293;DHT22;52402;52.670;6.750;2023-02-16T08:15:43;5.90;99.90
60293;DHT22;52402;52.670;6.750;2023-02-16T08:18:09;5.90;99.90
60293;DHT22;52402;52.670;6.750;2023-02-16T08:20:35;5.90;99.90
60293;DHT22;52402;52.670;6.750;2023-02-16T08:23:00;5.90;99.90
60293;DHT22;52402;52.670;6.750;2023-02-16T08:25:26;6.00;99.90
60293;DHT22;52402;52.670;6.750;2023-02-16T08:27:51;6.00;99.90
60293;DHT22;52402;52.670;6.750;2023-02-16T08:30:17;6.00;99.90
60293;DHT22;52402;52.670;6.750;2023-02-16T08:32:45;6.00;99.90
60293;DHT22;52402;52.670;6.750;2023-02-16T08:35:11;6.00;99.90
60293;DHT22;52402;52.670;6.750;2023-02-16T08:37:37;6.00;99.90
60293;DHT22;52402;52.670;6.750;2023-02-16T08:40:06;6.10;99.90
60293;DHT22;52402;52.670;6.750;2023-02-16T08:42:32;6.10;99.90
60293;DHT22;52402;52.670;6.750;2023-02-16T08:44:58;6.10;99.90
60293;DHT22;52402;52.670;6.750;2023-02-16T08:47:23;6.10;99.90
60293;DHT22;52402;52.670;6.750;2023-02-16T08:49:49;6.10;99.90
60293;DHT22;52402;52.670;6.750;2023-02-16T08:52:15;6.20;99.90
60293;DHT22;52402;52.670;6.750;2023-02-16T08:54:40;6.20;99.90
60293;DHT22;52402;52.670;6.750;2023-02-16T08:57:07;6.20;99.90
60293;DHT22;52402;52.670;6.750;2023-02-16T08:59:32;6.20;99.90
60293;DHT22;52402;52.670;6.750;2023-02-16T09:01:59;6.20;99.90
60293;DHT22;52402;52.670;6.750;2023-02-16T09:04:26;6.30;99.90
60293;DHT22;52402;52.670;6.750;2023-02-16T09:06:53;6.20;99.90
60293;DHT22;52402;52.670;6.750;2023-02-16T09:09:19;6.30;99.90
60293;DHT22;52402;52.670;6.750;2023-02-16T09:11:45;6.30;99.90
60293;DHT22;52402;52.670;6.750;2023-02-16T09:14:11;6.30;99.90
60293;DHT22;52402;52.670;6.750;2023-02-16T09:16:38;6.40;99.90
60293;DHT22;52402;52.670;6.750;2023-02-16T09:19:11;6.40;99.90
60293;DHT22;52402;52.670;6.750;2023-02-16T09:21:38;6.40;99.90
60293;DHT22;52402;52.670;6.750;2023-02-16T09:24:05;6.40;99.90
60293;DHT22;52402;52.670;6.750;2023-02-16T09:26:32;6.40;99.90
60293;DHT22;52402;52.670;6.750;2023-02-16T09:28:59;6.40;99.90
60293;DHT22;52402;52.670;6.750;2023-02-16T09:31:28;6.50;99.90
60293;DHT22;52402;52.670;6.750;2023-02-16T09:33:59;6.50;99.90
60293;DHT22;52402;52.670;6.750;2023-02-16T09:36:25;6.50;99.90
60293;DHT22;52402;52.670;6.750;2023-02-16T09:38:52;6.50;99.90
60293;DHT22;52402;52.670;6.750;2023-02-16T09:46:50;6.60;99.90
60293;DHT22;52402;52.670;6.750;2023-02-16T09:49:30;6.60;99.90
60293;DHT22;52402;52.670;6.750;2023-02-16T09:52:22;6.60;99.90
60293;DHT22;52402;52.670;6.750;2023-02-16T09:54:54;6.70;99.90
60293;DHT22;52402;52.670;6.750;2023-02-16T09:57:50;6.70;99.90
60293;DHT22;52402;52.670;6.750;2023-02-16T10:00:43;6.70;99.90
60293;DHT22;52402;52.670;6.750;2023-02-16T10:09:16;6.80;99.90
60293;DHT22;52402;52.670;6.750;2023-02-16T10:12:14;6.90;99.90
60293;DHT22;52402;52.670;6.750;2023-02-16T10:14:51;6.90;99.90
60293;DHT22;52402;52.670;6.750;2023-02-16T10:20:11;6.90;99.90
60293;DHT22;52402;52.670;6.750;2023-02-16T10:25:24;6.90;99.90
60293;DHT22;52402;52.670;6.750;2023-02-16T10:30:45;7.00;99.90
60293;DHT22;52402;52.670;6.750;2023-02-16T10:36:13;7.00;99.90
60293;DHT22;52402;52.670;6.750;2023-02-16T10:41:41;7.10;99.90
60293;DHT22;52402;52.670;6.750;2023-02-16T10:44:18;7.10;99.90
60293;DHT22;52402;52.670;6.750;2023-02-16T10:46:55;7.10;99.90
60293;DHT22;52402;52.670;6.750;2023-02-16T10:49:23;7.20;99.90
60293;DHT22;52402;52.670;6.750;2023-02-16T10:51:51;7.20;99.90
60293;DHT22;52402;52.670;6.750;2023-02-16T10:54:23;7.30;99.90
60293;DHT22;52402;52.670;6.750;2023-02-16T10:56:53;7.20;99.90
60293;DHT22;52402;52.670;6.750;2023-02-16T10:59:39;7.20;99.90
60293;DHT22;52402;52.670;6.750;2023-02-16T11:02:29;7.20;99.90
60293;DHT22;52402;52.670;6.750;2023-02-16T11:04:58;7.30;99.90
60293;DHT22;52402;52.670;6.750;2023-02-16T11:07:27;7.30;99.90
60293;DHT22;52402;52.670;6.750;2023-02-16T11:09:56;7.30;99.90
60293;DHT22;52402;52.670;6.750;2023-02-16T11:12:37;7.30;99.90
60293;DHT22;52402;52.670;6.750;2023-02-16T11:15:18;7.30;99.90
60293;DHT22;52402;52.670;6.750;2023-02-16T11:20:31;7.30;99.90
60293;DHT22;52402;52.670;6.750;2023-02-16T11:26:19;7.40;99.90
60293;DHT22;52402;52.670;6.750;2023-02-16T11:28:47;7.40;99.90
60293;DHT22;52402;52.670;6.750;2023-02-16T11:33:59;7.40;99.90
60293;DHT22;52402;52.670;6.750;2023-02-16T11:36:32;7.30;99.90
60293;DHT22;52402;52.670;6.750;2023-02-16T11:41:31;7.40;99.90
60293;DHT22;52402;52.670;6.750;2023-02-16T11:43:58;7.40;99.90
60293;DHT22;52402;52.670;6.750;2023-02-16T11:46:24;7.40;99.90
60293;DHT22;52402;52.670;6.750;2023-02-16T11:48:50;7.40;99.90
60293;DHT22;52402;52.670;6.750;2023-02-16T11:51:29;7.40;99.90
60293;DHT22;52402;52.670;6.750;2023-02-16T11:54:02;7.40;99.90
60293;DHT22;52402;52.670;6.750;2023-02-16T11:56:37;7.40;99.90
60293;DHT22;52402;52.670;6.750;2023-02-16T11:59:15;7.40;99.90
60293;DHT22;52402;52.670;6.750;2023-02-16T12:04:45;7.50;99.90
60293;DHT22;52402;52.670;6.750;2023-02-16T12:10:38;7.50;99.90
60293;DHT22;52402;52.670;6.750;2023-02-16T12:21:49;7.70;99.90
60293;DHT22;52402;52.670;6.750;2023-02-16T12:24:38;7.80;99.90
60293;DHT22;52402;52.670;6.750;2023-02-16T12:27:22;7.90;99.90
60293;DHT22;52402;52.670;6.750;2023-02-16T12:30:17;8.00;99.90
60293;DHT22;52402;52.670;6.750;2023-02-16T12:32:58;8.10;99.90
60293;DHT22;52402;52.670;6.750;2023-02-16T12:36:31;8.10;99.90
60293;DHT22;52402;52.670;6.750;2023-02-16T12:44:29;8.50;99.90
60293;DHT22;52402;52.670;6.750;2023-02-16T12:47:10;8.60;99.90
60293;DHT22;52402;52.670;6.750;2023-02-16T12:49:57;8.60;99.90
60293;DHT22;52402;52.670;6.750;2023-02-16T12:52:36;8.60;99.90
60293;DHT22;52402;52.670;6.750;2023-02-16T12:55:17;8.70;99.90
60293;DHT22;52402;52.670;6.750;2023-02-16T12:57:55;8.70;99.90
60293;DHT22;52402;52.670;6.750;2023-02-16T13:03:26;8.70;99.90
60293;DHT22;52402;52.670;6.750;2023-02-16T13:11:27;8.90;99.90
60293;DHT22;52402;52.670;6.750;2023-02-16T13:13:58;8.90;99.90
60293;DHT22;52402;52.670;6.750;2023-02-16T13:16:38;9.00;99.90
60293;DHT22;52402;52.670;6.750;2023-02-16T13:19:10;9.00;99.90
60293;DHT22;52402;52.670;6.750;2023-02-16T13:27:16;9.10;99.90
60293;DHT22;52402;52.670;6.750;2023-02-16T13:35:57;9.20;99.90
60293;DHT22;52402;52.670;6.750;2023-02-16T13:38:53;9.20;99.90
60293;DHT22;52402;52.670;6.750;2023-02-16T13:41:40;9.20;99.90
60293;DHT22;52402;52.670;6.750;2023-02-16T13:46:40;9.30;99.90
60293;DHT22;52402;52.670;6.750;2023-02-16T13:49:23;9.30;99.90
60293;DHT22;52402;52.670;6.750;2023-02-16T13:51:52;9.30;99.90
60293;DHT22;52402;52.670;6.750;2023-02-16T13:54:27;9.30;99.90
60293;DHT22;52402;52.670;6.750;2023-02-16T13:56:53;9.40;99.90
60293;DHT22;52402;52.670;6.750;2023-02-16T14:01:52;9.30;99.90
60293;DHT22;52402;52.670;6.750;2023-02-16T14:09:48;9.30;99.90
60293;DHT22;52402;52.670;6.750;2023-02-16T14:12:21;9.40;99.90
60293;DHT22;52402;52.670;6.750;2023-02-16T14:24:54;9.30;99.90
60293;DHT22;52402;52.670;6.750;2023-02-16T14:27:43;9.30;99.90
60293;DHT22;52402;52.670;6.750;2023-02-16T14:32:55;9.30;99.90
60293;DHT22;52402;52.670;6.750;2023-02-16T14:35:33;9.30;99.90
60293;DHT22;52402;52.670;6.750;2023-02-16T14:48:53;9.40;99.90
60293;DHT22;52402;52.670;6.750;2023-02-16T15:04:57;9.30;99.90
60293;DHT22;52402;52.670;6.750;2023-02-16T15:07:24;9.30;99.90
60293;DHT22;52402;52.670;6.750;2023-02-16T15:09:56;9.20;99.90
60293;DHT22;52402;52.670;6.750;2023-02-16T15:12:27;9.20;99.90
60293;DHT22;52402;52.670;6.750;2023-02-16T15:14:58;9.20;99.90
60293;DHT22;52402;52.670;6.750;2023-02-16T15:17:26;9.20;99.90
60293;DHT22;52402;52.670;6.750;2023-02-16T15:19:54;9.20;99.90
60293;DHT22;52402;52.670;6.750;2023-02-16T15:22:25;9.20;99.90
60293;DHT22;52402;52.670;6.750;2023-02-16T15:24:56;9.20;99.90
60293;DHT22;52402;52.670;6.750;2023-02-16T15:27:23;9.20;99.90
60293;DHT22;52402;52.670;6.750;2023-02-16T15:30:16;9.10;99.90
60293;DHT22;52402;52.670;6.750;2023-02-16T15:32:59;9.10;99.90
60293;DHT22;52402;52.670;6.750;2023-02-16T15:35:37;9.10;99.90
60293;DHT22;52402;52.670;6.750;2023-02-16T15:40:38;9.00;99.90
60293;DHT22;52402;52.670;6.750;2023-02-16T15:45:51;9.10;99.90
60293;DHT22;52402;52.670;6.750;2023-02-16T15:48:35;9.10;99.90
60293;DHT22;52402;52.670;6.750;2023-02-16T15:51:15;9.00;99.90
60293;DHT22;52402;52.670;6.750;2023-02-16T15:53:52;9.00;99.90
60293;DHT22;52402;52.670;6.750;2023-02-16T15:56:37;8.90;99.90
60293;DHT22;52402;52.670;6.750;2023-02-16T15:59:29;8.90;99.90
60293;DHT22;52402;52.670;6.750;2023-02-16T16:04:43;8.80;99.90
60293;DHT22;52402;52.670;6.750;2023-02-16T16:07:16;8.80;99.90
60293;DHT22;52402;52.670;6.750;2023-02-16T16:09:44;8.80;99.90
60293;DHT22;52402;52.670;6.750;2023-02-16T16:12:13;8.70;99.90
60293;DHT22;52402;52.670;6.750;2023-02-16T16:14:53;8.70;99.90
60293;DHT22;52402;52.670;6.750;2023-02-16T16:17:24;8.60;99.90
60293;DHT22;52402;52.670;6.750;2023-02-16T16:19:53;8.60;99.90
60293;DHT22;52402;52.670;6.750;2023-02-16T16:22:33;8.50;99.90
60293;DHT22;52402;52.670;6.750;2023-02-16T16:25:00;8.60;99.90
60293;DHT22;52402;52.670;6.750;2023-02-16T16:27:32;8.60;99.90
60293;DHT22;52402;52.670;6.750;2023-02-16T16:32:45;8.50;99.90
60293;DHT22;52402;52.670;6.750;2023-02-16T16:35:22;8.40;99.90
60293;DHT22;52402;52.670;6.750;2023-02-16T16:37:51;8.50;99.90
60293;DHT22;52402;52.670;6.750;2023-02-16T16:45:42;8.40;99.90
60293;DHT22;52402;52.670;6.750;2023-02-16T16:51:15;8.40;99.90
60293;DHT22;52402;52.670;6.750;2023-02-16T16:54:01;8.40;99.90
60293;DHT22;52402;52.670;6.750;2023-02-16T16:56:30;8.40;99.90
60293;DHT22;52402;52.670;6.750;2023-02-16T16:58:58;8.40;99.90
60293;DHT22;52402;52.670;6.750;2023-02-16T17:01:26;8.40;99.90
60293;DHT22;52402;52.670;6.750;2023-02-16T17:03:52;8.40;99.90
60293;DHT22;52402;52.670;6.750;2023-02-16T17:06:18;8.40;99.90
60293;DHT22;52402;52.670;6.750;2023-02-16T17:08:45;8.40;99.90
60293;DHT22;52402;52.670;6.750;2023-02-16T17:11:29;8.40;99.90
60293;DHT22;52402;52.670;6.750;2023-02-16T17:13:59;8.40;99.90
60293;DHT22;52402;52.670;6.750;2023-02-16T17:16:32;8.40;99.90
60293;DHT22;52402;52.670;6.750;2023-02-16T17:18:59;8.50;99.90
60293;DHT22;52402;52.670;6.750;2023-02-16T17:21:25;8.40;99.90
60293;DHT22;52402;52.670;6.750;2023-02-16T17:23:51;8.50;99.90
60293;DHT22;52402;52.670;6.750;2023-02-16T17:26:16;8.40;99.90
60293;DHT22;52402;52.670;6.750;2023-02-16T17:28:42;8.40;99.90
60293;DHT22;52402;52.670;6.750;2023-02-16T17:31:09;8.40;99.90
60293;DHT22;52402;52.670;6.750;2023-02-16T17:33:34;8.40;99.90
60293;DHT22;52402;52.670;6.750;2023-02-16T17:36:01;8.40;99.90
60293;DHT22;52402;52.670;6.750;2023-02-16T17:38:27;8.40;99.90
60293;DHT22;52402;52.670;6.750;2023-02-16T17:40:55;8.40;99.90
60293;DHT22;52402;52.670;6.750;2023-02-16T17:43:22;8.40;99.90
60293;DHT22;52402;52.670;6.750;2023-02-16T17:45:51;8.40;99.90
60293;DHT22;52402;52.670;6.750;2023-02-16T17:48:26;8.40;99.90
60293;DHT22;52402;52.670;6.750;2023-02-16T17:50:56;8.40;99.90
60293;DHT22;52402;52.670;6.750;2023-02-16T17:53:24;8.40;99.90
60293;DHT22;52402;52.670;6.750;2023-02-16T17:55:53;8.40;99.90
60293;DHT22;52402;52.670;6.750;2023-02-16T17:58:20;8.40;99.90
60293;DHT22;52402;52.670;6.750;2023-02-16T18:00:46;8.40;99.90
60293;DHT22;52402;52.670;6.750;2023-02-16T18:03:11;8.40;99.90
60293;DHT22;52402;52.670;6.750;2023-02-16T18:05:37;8.40;99.90
60293;DHT22;52402;52.670;6.750;2023-02-16T18:08:04;8.40;99.90
60293;DHT22;52402;52.670;6.750;2023-02-16T18:10:41;8.40;99.90
60293;DHT22;52402;52.670;6.750;2023-02-16T18:13:07;8.40;99.90
60293;DHT22;52402;52.670;6.750;2023-02-16T18:15:34;8.40;99.90
60293;DHT22;52402;52.670;6.750;2023-02-16T18:17:59;8.40;99.90
60293;DHT22;52402;52.670;6.750;2023-02-16T18:20:25;8.40;99.90
60293;DHT22;52402;52.670;6.750;2023-02-16T18:22:52;8.40;99.90
60293;DHT22;52402;52.670;6.750;2023-02-16T18:25:18;8.40;99.90
60293;DHT22;52402;52.670;6.750;2023-02-16T18:27:44;8.50;99.90
60293;DHT22;52402;52.670;6.750;2023-02-16T18:30:10;8.50;99.90
60293;DHT22;52402;52.670;6.750;2023-02-16T18:32:37;8.50;99.90
60293;DHT22;52402;52.670;6.750;2023-02-16T18:35:03;8.50;99.90
60293;DHT22;52402;52.670;6.750;2023-02-16T18:37:30;8.50;99.90
60293;DHT22;52402;52.670;6.750;2023-02-16T18:39:55;8.50;99.90
60293;DHT22;52402;52.670;6.750;2023-02-16T18:42:21;8.50;99.90
60293;DHT22;52402;52.670;6.750;2023-02-16T18:44:47;8.50;99.90
60293;DHT22;52402;52.670;6.750;2023-02-16T18:47:13;8.50;99.90
60293;DHT22;52402;52.670;6.750;2023-02-16T18:49:39;8.50;99.90
60293;DHT22;52402;52.670;6.750;2023-02-16T18:52:06;8.50;99.90
60293;DHT22;52402;52.670;6.750;2023-02-16T18:54:32;8.50;99.90
60293;DHT22;52402;52.670;6.750;2023-02-16T18:56:57;8.50;99.90
60293;DHT22;52402;52.670;6.750;2023-02-16T18:59:23;8.50;99.90
60293;DHT22;52402;52.670;6.750;2023-02-16T19:01:54;8.50;99.90
60293;DHT22;52402;52.670;6.750;2023-02-16T19:04:20;8.50;99.90